createdAt,value
2023-01-15T00:00:10.512Z,99.99
2023-01-15T00:01:10.543Z,99.99
2023-01-15T00:02:10.557Z,99.99
2023-01-15T00:03:10.477Z,99.99
2023-01-15T00:04:10.478Z,99.99
2023-01-15T00:05:10.455Z,99.99
2023-01-15T00:06:10.451Z,99.99
2023-01-15T00:07:10.467Z,99.99
2023-01-15T00:08:10.429Z,99.99
2023-01-15T00:09:10.409Z,99.99
2023-01-15T00:10:10.408Z,99.99
2023-01-15T00:11:10.391Z,99.99
2023-01-15T00:12:10.389Z,99.99
2023-01-15T00:13:10.375Z,99.99
2023-01-15T00:14:10.363Z,99.99
2023-01-15T00:15:10.350Z,99.99
2023-01-15T00:16:10.424Z,99.99
2023-01-15T00:17:10.345Z,99.99
2023-01-15T00:18:10.314Z,99.99
2023-01-15T00:19:10.312Z,99.99
2023-01-15T00:20:10.286Z,99.99
2023-01-15T00:21:10.282Z,99.99
2023-01-15T00:22:10.286Z,99.99
2023-01-15T00:23:10.283Z,99.99
2023-01-15T00:24:10.268Z,99.99
2023-01-15T00:25:10.242Z,99.99
2023-01-15T00:26:10.215Z,99.99
2023-01-15T00:27:10.243Z,99.99
2023-01-15T00:28:10.203Z,99.99
2023-01-15T00:29:10.193Z,99.99
2023-01-15T00:30:10.192Z,99.99
2023-01-15T00:31:10.256Z,99.99
2023-01-15T00:32:10.192Z,99.99
2023-01-15T00:33:10.165Z,99.99
2023-01-15T00:34:10.139Z,99.99
2023-01-15T00:35:10.133Z,99.99
2023-01-15T00:36:10.120Z,99.99
2023-01-15T00:37:10.130Z,99.99
2023-01-15T00:38:10.088Z,99.99
2023-01-15T00:39:10.079Z,99.99
2023-01-15T00:40:10.096Z,99.99
2023-01-15T00:41:10.063Z,99.99
2023-01-15T00:42:10.089Z,99.99
2023-01-15T00:43:10.036Z,99.99
2023-01-15T00:44:10.040Z,99.99
2023-01-15T00:45:10.042Z,99.99
2023-01-15T00:46:10.046Z,99.99
2023-01-15T00:47:10.022Z,99.99
2023-01-15T00:48:09.987Z,99.99
2023-01-15T00:49:09.990Z,99.99
2023-01-15T00:50:09.969Z,99.99
2023-01-15T00:51:09.972Z,99.99
2023-01-15T00:52:09.965Z,99.99
2023-01-15T00:53:09.936Z,99.99
2023-01-15T00:54:09.927Z,99.99
2023-01-15T00:55:09.909Z,99.99
2023-01-15T00:56:09.914Z,99.99
2023-01-15T00:57:09.903Z,99.99
2023-01-15T00:58:09.881Z,99.99
2023-01-15T00:59:09.873Z,99.99
2023-01-15T01:00:09.850Z,99.99
2023-01-15T01:01:10.034Z,99.99
2023-01-15T01:02:10.014Z,99.99
2023-01-15T01:03:09.816Z,99.99
2023-01-15T01:04:09.820Z,99.99
2023-01-15T01:05:09.812Z,99.99
2023-01-15T01:06:09.787Z,99.99
2023-01-15T01:07:09.794Z,99.99
2023-01-15T01:08:09.768Z,99.99
2023-01-15T01:09:09.785Z,99.99
2023-01-15T01:10:09.748Z,99.99
2023-01-15T01:11:09.746Z,99.99
2023-01-15T01:12:09.737Z,99.99
2023-01-15T01:13:09.733Z,99.99
2023-01-15T01:14:09.703Z,99.99
2023-01-15T01:15:09.700Z,99.99
2023-01-15T01:16:09.691Z,99.99
2023-01-15T01:17:09.691Z,99.99
2023-01-15T01:18:09.665Z,99.99
2023-01-15T01:19:09.653Z,99.99
2023-01-15T01:20:09.639Z,99.99
2023-01-15T01:21:09.634Z,99.99
2023-01-15T01:22:09.632Z,99.99
2023-01-15T01:23:09.604Z,99.99
2023-01-15T01:24:09.584Z,99.99
2023-01-15T01:25:09.590Z,99.99
2023-01-15T01:26:09.587Z,99.99
2023-01-15T01:27:09.586Z,99.99
2023-01-15T01:28:09.541Z,99.99
2023-01-15T01:29:09.546Z,99.99
2023-01-15T01:30:09.529Z,99.99
2023-01-15T01:31:09.538Z,99.99
2023-01-15T01:32:09.536Z,99.99
2023-01-15T01:33:09.528Z,99.99
2023-01-15T01:34:09.487Z,99.99
2023-01-15T01:35:09.479Z,99.99
2023-01-15T01:36:09.470Z,99.99
2023-01-15T01:37:09.473Z,99.99
2023-01-15T01:38:09.457Z,99.99
2023-01-15T01:39:09.425Z,99.99
2023-01-15T01:40:09.420Z,99.99
2023-01-15T01:41:09.422Z,99.99
2023-01-15T01:42:09.412Z,99.99
2023-01-15T01:43:09.387Z,99.99
2023-01-15T01:44:09.384Z,99.99
2023-01-15T01:45:09.368Z,99.99
2023-01-15T01:46:09.345Z,99.99
2023-01-15T01:47:09.346Z,99.99
2023-01-15T01:48:09.352Z,99.99
2023-01-15T01:49:09.325Z,99.99
2023-01-15T01:50:09.316Z,99.99
2023-01-15T01:51:09.301Z,99.99
2023-01-15T01:52:09.296Z,99.99
2023-01-15T01:53:09.297Z,99.99
2023-01-15T01:54:09.285Z,99.99
2023-01-15T01:55:09.253Z,99.99
2023-01-15T01:56:09.245Z,99.99
2023-01-15T01:57:09.247Z,99.99
2023-01-15T01:58:09.243Z,99.99
2023-01-15T01:59:09.204Z,99.99
2023-01-15T02:00:09.204Z,99.99
2023-01-15T02:01:09.287Z,99.99
2023-01-15T02:02:09.292Z,99.99
2023-01-15T02:03:09.191Z,99.99
2023-01-15T02:04:09.164Z,99.99
2023-01-15T02:05:09.144Z,99.99
2023-01-15T02:06:09.128Z,99.99
2023-01-15T02:07:09.124Z,99.99
2023-01-15T02:08:09.168Z,99.99
2023-01-15T02:09:09.131Z,99.99
2023-01-15T02:10:09.102Z,99.99
2023-01-15T02:11:09.087Z,99.99
2023-01-15T02:12:09.077Z,99.99
2023-01-15T02:13:09.073Z,99.99
2023-01-15T02:14:09.051Z,99.99
2023-01-15T02:15:09.030Z,99.99
2023-01-15T02:16:09.063Z,99.99
2023-01-15T02:17:09.020Z,99.99
2023-01-15T02:18:09.027Z,99.99
2023-01-15T02:19:09.003Z,99.99
2023-01-15T02:20:08.982Z,99.99
2023-01-15T02:21:08.968Z,99.99
2023-01-15T02:22:08.954Z,99.99
2023-01-15T02:23:08.965Z,99.99
2023-01-15T02:24:08.943Z,99.99
2023-01-15T02:25:08.917Z,99.99
2023-01-15T02:26:08.922Z,99.99
2023-01-15T02:27:08.912Z,99.99
2023-01-15T02:28:08.906Z,99.99
2023-01-15T02:29:08.900Z,99.99
2023-01-15T02:30:08.869Z,99.99
2023-01-15T02:31:08.866Z,99.99
2023-01-15T02:32:08.854Z,99.99
2023-01-15T02:33:08.851Z,99.99
2023-01-15T02:34:08.826Z,99.99
2023-01-15T02:35:08.827Z,99.99
2023-01-15T02:36:08.825Z,99.99
2023-01-15T02:37:08.803Z,99.99
2023-01-15T02:38:08.799Z,99.99
2023-01-15T02:39:08.772Z,99.99
2023-01-15T02:40:08.774Z,99.99
2023-01-15T02:41:08.759Z,99.99
2023-01-15T02:42:08.751Z,99.99
2023-01-15T02:43:08.751Z,99.99
2023-01-15T02:44:08.715Z,99.99
2023-01-15T02:45:08.720Z,99.99
2023-01-15T02:46:08.782Z,99.99
2023-01-15T02:47:08.683Z,99.99
2023-01-15T02:48:08.687Z,99.99
2023-01-15T02:49:08.680Z,99.99
2023-01-15T02:50:08.657Z,99.99
2023-01-15T02:51:08.653Z,99.99
2023-01-15T02:52:08.639Z,99.99
2023-01-15T02:53:08.659Z,99.99
2023-01-15T02:54:08.602Z,99.99
2023-01-15T02:55:08.601Z,99.99
2023-01-15T02:56:08.603Z,99.99
2023-01-15T02:57:08.587Z,99.99
2023-01-15T02:58:08.598Z,99.99
2023-01-15T02:59:08.566Z,99.99
2023-01-15T03:00:08.572Z,99.99
2023-01-15T03:01:08.619Z,99.99
2023-01-15T03:02:08.718Z,99.99
2023-01-15T03:03:08.541Z,99.99
2023-01-15T03:04:08.508Z,99.99
2023-01-15T03:05:08.495Z,99.99
2023-01-15T03:06:08.479Z,99.99
2023-01-15T03:07:08.483Z,99.99
2023-01-15T03:08:08.480Z,99.90
2023-01-15T03:09:08.445Z,99.99
2023-01-15T03:10:08.477Z,99.99
2023-01-15T03:11:08.438Z,99.99
2023-01-15T03:12:08.407Z,99.99
2023-01-15T03:13:08.435Z,99.99
2023-01-15T03:14:08.397Z,99.99
2023-01-15T03:15:08.395Z,99.99
2023-01-15T03:16:08.432Z,99.99
2023-01-15T03:17:08.361Z,99.99
2023-01-15T03:18:08.370Z,99.99
2023-01-15T03:19:08.358Z,99.99
2023-01-15T03:20:08.334Z,99.99
2023-01-15T03:21:08.319Z,99.99
2023-01-15T03:22:08.303Z,99.99
2023-01-15T03:23:08.308Z,99.99
2023-01-15T03:24:08.308Z,99.99
2023-01-15T03:25:08.315Z,99.99
2023-01-15T03:26:08.259Z,99.99
2023-01-15T03:27:08.256Z,99.99
2023-01-15T03:28:08.257Z,99.99
2023-01-15T03:29:08.228Z,99.99
2023-01-15T03:30:08.227Z,99.99
2023-01-15T03:31:08.284Z,99.99
2023-01-15T03:32:08.225Z,99.99
2023-01-15T03:33:08.215Z,99.99
2023-01-15T03:34:08.177Z,99.99
2023-01-15T03:35:08.163Z,99.99
2023-01-15T03:36:08.151Z,99.99
2023-01-15T03:37:08.159Z,99.99
2023-01-15T03:38:08.166Z,99.99
2023-01-15T03:39:08.143Z,99.99
2023-01-15T03:40:08.106Z,99.99
2023-01-15T03:41:08.089Z,99.99
2023-01-15T03:42:08.093Z,99.99
2023-01-15T03:43:08.124Z,99.99
2023-01-15T03:44:08.087Z,99.99
2023-01-15T03:45:08.082Z,99.99
2023-01-15T03:46:08.120Z,99.99
2023-01-15T03:47:08.037Z,99.99
2023-01-15T03:48:08.038Z,99.99
2023-01-15T03:49:08.015Z,99.99
2023-01-15T03:50:08.021Z,99.99
2023-01-15T03:51:07.999Z,99.99
2023-01-15T03:52:07.985Z,99.99
2023-01-15T03:53:07.992Z,99.99
2023-01-15T03:54:08.003Z,99.99
2023-01-15T03:55:07.967Z,99.99
2023-01-15T03:56:07.932Z,99.99
2023-01-15T03:57:07.944Z,99.99
2023-01-15T03:58:07.939Z,99.99
2023-01-15T03:59:07.920Z,99.99
2023-01-15T04:00:07.887Z,99.99
2023-01-15T04:01:07.997Z,99.99
2023-01-15T04:02:08.064Z,99.99
2023-01-15T04:03:07.865Z,99.99
2023-01-15T04:04:07.872Z,99.99
2023-01-15T04:05:07.861Z,99.99
2023-01-15T04:06:07.837Z,99.99
2023-01-15T04:07:07.817Z,99.99
2023-01-15T04:08:07.832Z,99.99
2023-01-15T04:09:07.804Z,99.99
2023-01-15T04:10:07.793Z,99.99
2023-01-15T04:11:07.778Z,99.99
2023-01-15T04:12:07.783Z,99.99
2023-01-15T04:13:07.787Z,99.99
2023-01-15T04:14:07.741Z,99.99
2023-01-15T04:15:07.726Z,99.99
2023-01-15T04:16:07.771Z,99.99
2023-01-15T04:17:07.710Z,99.99
2023-01-15T04:18:07.710Z,99.99
2023-01-15T04:19:07.688Z,99.99
2023-01-15T04:20:07.673Z,99.99
2023-01-15T04:21:07.680Z,99.99
2023-01-15T04:22:07.661Z,99.99
2023-01-15T04:23:07.669Z,99.99
2023-01-15T04:24:07.630Z,99.99
2023-01-15T04:25:07.632Z,99.99
2023-01-15T04:26:07.618Z,99.99
2023-01-15T04:27:07.607Z,99.99
2023-01-15T04:28:07.608Z,99.99
2023-01-15T04:29:07.583Z,99.99
2023-01-15T04:30:07.562Z,99.99
2023-01-15T04:31:07.607Z,99.99
2023-01-15T04:32:07.553Z,99.99
2023-01-15T04:33:07.563Z,99.99
2023-01-15T04:34:07.533Z,99.99
2023-01-15T04:35:07.508Z,99.99
2023-01-15T04:36:07.513Z,99.99
2023-01-15T04:37:07.498Z,99.99
2023-01-15T04:38:07.503Z,99.99
2023-01-15T04:39:07.490Z,99.99
2023-01-15T04:40:07.453Z,99.99
2023-01-15T04:41:07.467Z,99.99
2023-01-15T04:42:07.422Z,99.99
2023-01-15T04:43:07.421Z,99.99
2023-01-15T04:44:07.447Z,99.99
2023-01-15T04:45:07.404Z,99.99
2023-01-15T04:46:07.476Z,99.99
2023-01-15T04:47:07.402Z,99.99
2023-01-15T04:48:07.393Z,99.99
2023-01-15T04:49:07.390Z,99.99
2023-01-15T04:50:07.346Z,99.99
2023-01-15T04:51:07.344Z,99.99
2023-01-15T04:52:07.332Z,99.99
2023-01-15T04:53:07.318Z,99.99
2023-01-15T04:54:07.314Z,99.99
2023-01-15T04:55:07.324Z,99.99
2023-01-15T04:56:07.281Z,99.99
2023-01-15T04:57:07.262Z,99.99
2023-01-15T04:58:07.258Z,99.99
2023-01-15T04:59:07.297Z,99.99
2023-01-15T05:00:07.246Z,99.99
2023-01-15T05:01:07.297Z,99.99
2023-01-15T05:02:07.435Z,99.99
2023-01-15T05:03:07.214Z,99.99
2023-01-15T05:04:07.249Z,99.99
2023-01-15T05:05:07.181Z,99.99
2023-01-15T05:06:07.191Z,99.99
2023-01-15T05:07:07.175Z,99.99
2023-01-15T05:08:07.163Z,99.99
2023-01-15T05:09:07.160Z,99.99
2023-01-15T05:10:07.144Z,99.99
2023-01-15T05:11:07.116Z,99.99
2023-01-15T05:12:07.110Z,99.99
2023-01-15T05:13:07.097Z,99.99
2023-01-15T05:14:07.109Z,99.99
2023-01-15T05:15:07.103Z,99.99
2023-01-15T05:16:07.176Z,99.99
2023-01-15T05:17:07.058Z,99.99
2023-01-15T05:18:07.066Z,99.99
2023-01-15T05:19:07.068Z,99.99
2023-01-15T05:20:07.026Z,99.99
2023-01-15T05:21:07.069Z,99.99
2023-01-15T05:22:06.993Z,99.99
2023-01-15T05:23:06.990Z,99.99
2023-01-15T05:24:07.002Z,99.99
2023-01-15T05:25:06.977Z,99.99
2023-01-15T05:26:06.978Z,99.99
2023-01-15T05:27:06.951Z,99.99
2023-01-15T05:28:06.931Z,99.99
2023-01-15T05:29:07.737Z,99.99
2023-01-15T05:30:06.916Z,99.99
2023-01-15T05:31:07.013Z,99.99
2023-01-15T05:32:09.533Z,99.99
2023-01-15T05:33:06.927Z,99.99
2023-01-15T05:34:06.889Z,99.99
2023-01-15T05:35:06.851Z,99.99
2023-01-15T05:36:06.856Z,99.99
2023-01-15T05:37:06.837Z,99.99
2023-01-15T05:38:06.853Z,99.99
2023-01-15T05:39:06.847Z,99.99
2023-01-15T05:40:06.807Z,99.99
2023-01-15T05:41:06.798Z,99.99
2023-01-15T05:42:06.799Z,99.99
2023-01-15T05:43:06.773Z,99.99
2023-01-15T05:44:06.797Z,99.99
2023-01-15T05:45:06.764Z,99.99
2023-01-15T05:46:06.776Z,99.99
2023-01-15T05:47:06.724Z,99.99
2023-01-15T05:48:06.735Z,99.99
2023-01-15T05:49:06.743Z,99.99
2023-01-15T05:50:06.694Z,99.99
2023-01-15T05:51:06.712Z,99.99
2023-01-15T05:52:06.675Z,99.99
2023-01-15T05:53:06.658Z,99.99
2023-01-15T05:54:06.679Z,99.99
2023-01-15T05:55:06.655Z,99.99
2023-01-15T05:56:06.629Z,99.99
2023-01-15T05:57:06.616Z,99.99
2023-01-15T05:58:06.615Z,99.99
2023-01-15T05:59:06.637Z,99.99
2023-01-15T06:00:06.602Z,99.99
2023-01-15T06:01:06.593Z,99.99
2023-01-15T06:02:06.566Z,99.99
2023-01-15T06:03:06.555Z,99.99
2023-01-15T06:04:06.621Z,99.99
2023-01-15T06:05:06.525Z,99.99
2023-01-15T06:06:06.537Z,99.99
2023-01-15T06:07:06.512Z,99.99
2023-01-15T06:08:06.501Z,99.99
2023-01-15T06:09:06.511Z,99.99
2023-01-15T06:10:06.492Z,99.99
2023-01-15T06:11:06.480Z,99.99
2023-01-15T06:12:06.453Z,99.99
2023-01-15T06:13:06.443Z,99.99
2023-01-15T06:14:06.445Z,99.99
2023-01-15T06:15:06.439Z,99.56
2023-01-15T06:16:06.443Z,99.56
2023-01-15T06:17:06.402Z,99.66
2023-01-15T06:18:06.404Z,99.77
2023-01-15T06:19:06.406Z,99.77
2023-01-15T06:20:06.369Z,99.56
2023-01-15T06:21:06.369Z,99.56
2023-01-15T06:22:06.342Z,99.77
2023-01-15T06:23:06.331Z,99.99
2023-01-15T06:24:06.362Z,99.99
2023-01-15T06:25:06.321Z,99.99
2023-01-15T06:26:06.302Z,99.99
2023-01-15T06:27:06.299Z,99.99
2023-01-15T06:28:06.280Z,99.99
2023-01-15T06:29:06.292Z,99.99
2023-01-15T06:30:06.262Z,99.99
2023-01-15T06:31:06.262Z,99.99
2023-01-15T06:32:06.240Z,99.99
2023-01-15T06:33:06.222Z,99.99
2023-01-15T06:34:06.244Z,99.99
2023-01-15T06:35:06.209Z,99.99
2023-01-15T06:36:06.215Z,99.99
2023-01-15T06:37:06.181Z,99.99
2023-01-15T06:38:06.180Z,99.99
2023-01-15T06:39:06.174Z,99.99
2023-01-15T06:40:06.152Z,99.99
2023-01-15T06:41:06.138Z,99.99
2023-01-15T06:42:06.130Z,99.99
2023-01-15T06:43:06.118Z,99.99
2023-01-15T06:44:06.119Z,99.99
2023-01-15T06:45:06.102Z,99.99
2023-01-15T06:46:06.077Z,99.99
2023-01-15T06:47:06.101Z,99.99
2023-01-15T06:48:06.070Z,99.99
2023-01-15T06:49:06.073Z,99.99
2023-01-15T06:50:06.057Z,99.99
2023-01-15T06:51:06.064Z,99.99
2023-01-15T06:52:06.020Z,99.99
2023-01-15T06:53:06.014Z,99.99
2023-01-15T06:54:06.016Z,99.99
2023-01-15T06:55:05.985Z,99.99
2023-01-15T06:56:06.007Z,99.99
2023-01-15T06:57:05.966Z,99.99
2023-01-15T06:58:05.958Z,99.99
2023-01-15T06:59:05.963Z,99.99
2023-01-15T07:00:05.926Z,99.99
2023-01-15T07:01:05.989Z,99.99
2023-01-15T07:02:05.913Z,99.99
2023-01-15T07:03:05.914Z,99.99
2023-01-15T07:04:05.958Z,99.99
2023-01-15T07:05:05.902Z,99.99
2023-01-15T07:06:05.866Z,99.99
2023-01-15T07:07:05.851Z,99.99
2023-01-15T07:08:05.858Z,99.99
2023-01-15T07:09:05.862Z,99.99
2023-01-15T07:10:05.826Z,99.99
2023-01-15T07:11:05.811Z,99.99
2023-01-15T07:12:05.805Z,99.99
2023-01-15T07:13:05.790Z,99.99
2023-01-15T07:14:05.808Z,99.99
2023-01-15T07:15:05.766Z,99.99
2023-01-15T07:16:05.792Z,99.99
2023-01-15T07:17:05.748Z,99.82
2023-01-15T07:18:05.730Z,99.82
2023-01-15T07:19:05.736Z,99.82
2023-01-15T07:20:05.719Z,99.99
2023-01-15T07:21:05.699Z,99.99
2023-01-15T07:22:05.706Z,99.99
2023-01-15T07:23:05.674Z,99.99
2023-01-15T07:24:05.690Z,99.99
2023-01-15T07:25:05.655Z,99.99
2023-01-15T07:26:05.653Z,99.99
2023-01-15T07:27:05.644Z,99.99
2023-01-15T07:28:05.630Z,99.99
2023-01-15T07:29:05.641Z,99.99
2023-01-15T07:30:05.619Z,99.99
2023-01-15T07:31:05.678Z,99.99
2023-01-15T07:32:05.600Z,99.99
2023-01-15T07:33:05.568Z,99.99
2023-01-15T07:34:05.576Z,99.99
2023-01-15T07:35:05.564Z,99.99
2023-01-15T07:36:05.539Z,99.99
2023-01-15T07:37:05.541Z,99.99
2023-01-15T07:38:05.518Z,99.99
2023-01-15T07:39:05.527Z,99.99
2023-01-15T07:40:05.542Z,99.99
2023-01-15T07:41:05.503Z,99.99
2023-01-15T07:42:05.476Z,99.99
2023-01-15T07:43:05.489Z,99.99
2023-01-15T07:44:05.461Z,99.99
2023-01-15T07:45:05.459Z,99.99
2023-01-15T07:46:05.493Z,99.99
2023-01-15T07:47:05.419Z,99.99
2023-01-15T07:48:05.411Z,99.99
2023-01-15T07:49:05.422Z,99.99
2023-01-15T07:50:05.406Z,99.99
2023-01-15T07:51:05.374Z,99.99
2023-01-15T07:52:05.362Z,99.99
2023-01-15T07:53:05.354Z,99.99
2023-01-15T07:54:05.342Z,99.99
2023-01-15T07:55:05.363Z,99.72
2023-01-15T07:56:05.329Z,99.62
2023-01-15T07:57:05.320Z,99.62
2023-01-15T07:58:05.297Z,99.82
2023-01-15T07:59:05.291Z,99.99
2023-01-15T08:00:05.296Z,99.82
2023-01-15T08:01:05.371Z,99.52
2023-01-15T08:02:05.299Z,99.66
2023-01-15T08:03:05.245Z,99.56
2023-01-15T08:04:05.380Z,99.46
2023-01-15T08:05:05.271Z,99.56
2023-01-15T08:06:05.211Z,99.56
2023-01-15T08:07:05.195Z,99.46
2023-01-15T08:08:05.197Z,99.56
2023-01-15T08:09:05.171Z,99.35
2023-01-15T08:10:05.197Z,98.84
2023-01-15T08:11:05.187Z,99.05
2023-01-15T08:12:05.152Z,99.25
2023-01-15T08:13:05.164Z,99.25
2023-01-15T08:14:05.123Z,99.25
2023-01-15T08:15:05.762Z,99.46
2023-01-15T08:16:05.142Z,98.53
2023-01-15T08:17:05.112Z,98.22
2023-01-15T08:18:05.109Z,98.32
2023-01-15T08:19:05.067Z,98.53
2023-01-15T08:20:05.077Z,98.74
2023-01-15T08:21:05.059Z,98.94
2023-01-15T08:22:05.038Z,98.74
2023-01-15T08:23:05.018Z,98.11
2023-01-15T08:24:05.039Z,98.32
2023-01-15T08:25:05.021Z,97.91
2023-01-15T08:26:04.992Z,98.11
2023-01-15T08:27:04.989Z,96.15
2023-01-15T08:28:04.975Z,96.36
2023-01-15T08:29:04.965Z,96.77
2023-01-15T08:30:04.980Z,96.98
2023-01-15T08:31:04.947Z,97.19
2023-01-15T08:32:04.936Z,96.98
2023-01-15T08:33:04.915Z,96.77
2023-01-15T08:34:04.938Z,96.88
2023-01-15T08:35:04.909Z,96.77
2023-01-15T08:36:04.889Z,97.08
2023-01-15T08:37:04.870Z,97.29
2023-01-15T08:38:04.860Z,97.08
2023-01-15T08:39:04.845Z,97.29
2023-01-15T08:40:04.867Z,97.50
2023-01-15T08:41:04.849Z,97.75
2023-01-15T08:42:04.830Z,97.96
2023-01-15T08:43:04.798Z,98.16
2023-01-15T08:44:04.803Z,98.06
2023-01-15T08:45:04.812Z,97.96
2023-01-15T08:46:04.855Z,97.85
2023-01-15T08:47:04.774Z,97.75
2023-01-15T08:48:04.758Z,98.06
2023-01-15T08:49:06.509Z,98.27
2023-01-15T08:50:04.761Z,98.06
2023-01-15T08:51:04.719Z,98.27
2023-01-15T08:52:04.718Z,97.85
2023-01-15T08:53:04.710Z,97.85
2023-01-15T08:54:04.704Z,98.06
2023-01-15T08:55:04.692Z,97.96
2023-01-15T08:56:04.672Z,97.75
2023-01-15T08:57:04.653Z,98.06
2023-01-15T08:58:04.663Z,98.27
2023-01-15T08:59:04.632Z,98.27
2023-01-15T09:00:04.650Z,98.27
2023-01-15T09:01:04.689Z,98.16
2023-01-15T09:02:04.768Z,97.64
2023-01-15T09:03:04.608Z,97.85
2023-01-15T09:04:04.583Z,98.06
2023-01-15T09:05:04.632Z,98.27
2023-01-15T09:06:04.575Z,98.37
2023-01-15T09:07:04.563Z,98.52
2023-01-15T09:08:04.542Z,98.41
2023-01-15T09:09:04.541Z,98.41
2023-01-15T09:10:04.532Z,98.52
2023-01-15T09:11:04.516Z,98.62
2023-01-15T09:12:04.492Z,98.52
2023-01-15T09:13:04.479Z,98.52
2023-01-15T09:14:04.466Z,98.72
2023-01-15T09:15:04.497Z,98.41
2023-01-15T09:16:04.451Z,96.97
2023-01-15T09:17:04.440Z,96.92
2023-01-15T09:18:04.427Z,97.23
2023-01-15T09:19:04.422Z,97.44
2023-01-15T09:20:04.430Z,97.33
2023-01-15T09:21:04.397Z,96.61
2023-01-15T09:22:04.385Z,96.51
2023-01-15T09:23:04.372Z,96.72
2023-01-15T09:24:04.361Z,96.61
2023-01-15T09:25:04.370Z,96.72
2023-01-15T09:26:04.341Z,97.13
2023-01-15T09:27:04.345Z,97.23
2023-01-15T09:28:04.318Z,97.59
2023-01-15T09:29:04.303Z,97.49
2023-01-15T09:30:04.343Z,96.20
2023-01-15T09:31:04.406Z,96.72
2023-01-15T09:32:04.281Z,96.92
2023-01-15T09:33:04.265Z,96.30
2023-01-15T09:34:04.270Z,95.06
2023-01-15T09:35:04.290Z,95.06
2023-01-15T09:36:04.263Z,94.50
2023-01-15T09:37:04.229Z,95.53
2023-01-15T09:38:04.230Z,93.47
2023-01-15T09:39:04.199Z,94.29
2023-01-15T09:40:04.253Z,94.92
2023-01-15T09:41:04.191Z,95.32
2023-01-15T09:42:04.166Z,94.03
2023-01-15T09:43:04.140Z,93.98
2023-01-15T09:44:04.147Z,92.54
2023-01-15T09:45:04.152Z,93.68
2023-01-15T09:46:04.212Z,93.98
2023-01-15T09:47:04.121Z,93.26
2023-01-15T09:48:05.134Z,93.57
2023-01-15T09:49:04.124Z,93.68
2023-01-15T09:50:04.105Z,93.88
2023-01-15T09:51:04.068Z,93.98
2023-01-15T09:52:04.065Z,93.78
2023-01-15T09:53:04.048Z,92.95
2023-01-15T09:54:04.034Z,93.78
2023-01-15T09:55:04.059Z,93.88
2023-01-15T09:56:04.025Z,91.92
2023-01-15T09:57:04.037Z,92.54
2023-01-15T09:58:03.987Z,93.16
2023-01-15T09:59:03.998Z,93.78
2023-01-15T10:00:03.996Z,92.85
2023-01-15T10:01:04.036Z,92.23
2023-01-15T10:02:03.950Z,92.70
2023-01-15T10:03:04.041Z,92.19
2023-01-15T10:04:04.046Z,92.08
2023-01-15T10:05:05.788Z,91.88
2023-01-15T10:06:03.918Z,92.40
2023-01-15T10:07:03.904Z,92.29
2023-01-15T10:08:03.891Z,90.74
2023-01-15T10:09:03.868Z,91.11
2023-01-15T10:10:03.887Z,91.63
2023-01-15T10:11:03.847Z,91.22
2023-01-15T10:12:03.840Z,92.46
2023-01-15T10:13:03.832Z,92.46
2023-01-15T10:14:03.833Z,91.94
2023-01-15T10:15:03.843Z,91.11
2023-01-15T10:16:03.875Z,92.14
2023-01-15T10:17:03.785Z,90.19
2023-01-15T10:18:03.782Z,90.80
2023-01-15T10:19:03.773Z,90.86
2023-01-15T10:20:03.762Z,91.52
2023-01-15T10:21:03.758Z,91.38
2023-01-15T10:22:03.723Z,91.38
2023-01-15T10:23:03.741Z,90.66
2023-01-15T10:24:03.713Z,91.07
2023-01-15T10:25:03.708Z,91.17
2023-01-15T10:26:03.690Z,90.82
2023-01-15T10:27:03.747Z,91.03
2023-01-15T10:28:03.679Z,90.92
2023-01-15T10:29:03.716Z,92.27
2023-01-15T10:30:03.666Z,91.75
2023-01-15T10:31:03.693Z,91.54
2023-01-15T10:32:03.611Z,88.24
2023-01-15T10:33:03.746Z,91.85
2023-01-15T10:34:03.602Z,90.51
2023-01-15T10:35:03.615Z,90.20
2023-01-15T10:36:03.577Z,89.69
2023-01-15T10:37:03.568Z,87.93
2023-01-15T10:38:03.554Z,90.51
2023-01-15T10:39:03.536Z,90.20
2023-01-15T10:40:03.559Z,89.38
2023-01-15T10:41:03.525Z,89.48
2023-01-15T10:42:03.522Z,88.04
2023-01-15T10:43:03.523Z,89.07
2023-01-15T10:44:03.489Z,89.48
2023-01-15T10:45:03.504Z,89.79
2023-01-15T10:46:03.485Z,88.86
2023-01-15T10:47:03.493Z,88.65
2023-01-15T10:48:03.458Z,88.96
2023-01-15T10:49:03.447Z,89.48
2023-01-15T10:50:03.461Z,89.89
2023-01-15T10:51:03.452Z,88.76
2023-01-15T10:52:03.404Z,88.86
2023-01-15T10:53:03.392Z,89.89
2023-01-15T10:54:03.398Z,90.72
2023-01-15T10:55:03.402Z,90.41
2023-01-15T10:56:03.367Z,90.10
2023-01-15T10:57:03.369Z,89.58
2023-01-15T10:58:10.267Z,87.42
2023-01-15T10:59:03.340Z,88.45
2023-01-15T11:00:03.347Z,88.92
2023-01-15T11:01:03.406Z,90.06
2023-01-15T11:02:03.610Z,89.95
2023-01-15T11:03:03.422Z,90.67
2023-01-15T11:04:03.278Z,90.47
2023-01-15T11:05:03.287Z,89.95
2023-01-15T11:06:03.248Z,89.13
2023-01-15T11:07:03.243Z,89.85
2023-01-15T11:08:34.381Z,89.54
2023-01-15T11:09:11.918Z,89.95
2023-01-15T11:10:03.240Z,90.57
2023-01-15T11:11:03.203Z,88.51
2023-01-15T11:12:03.189Z,88.31
2023-01-15T11:13:03.176Z,87.69
2023-01-15T11:14:03.167Z,88.31
2023-01-15T11:15:03.171Z,88.31
2023-01-15T11:16:03.195Z,89.34
2023-01-15T11:17:03.143Z,86.66
2023-01-15T11:18:03.137Z,85.94
2023-01-15T11:19:03.110Z,87.79
2023-01-15T11:20:03.131Z,85.22
2023-01-15T11:21:03.090Z,85.89
2023-01-15T11:22:03.075Z,86.93
2023-01-15T11:23:03.061Z,87.85
2023-01-15T11:24:03.058Z,87.13
2023-01-15T11:25:03.060Z,87.65
2023-01-15T11:26:03.049Z,86.21
2023-01-15T11:27:03.027Z,87.03
2023-01-15T11:28:03.002Z,88.72
2023-01-15T11:29:03.004Z,89.03
2023-01-15T11:30:03.010Z,88.31
2023-01-15T11:31:02.998Z,88.10
2023-01-15T11:32:02.969Z,87.38
2023-01-15T11:33:02.975Z,88.41
2023-01-15T11:34:02.943Z,90.41
2023-01-15T11:35:02.963Z,90.82
2023-01-15T11:36:02.925Z,91.24
2023-01-15T11:37:02.910Z,91.28
2023-01-15T11:38:02.917Z,93.34
2023-01-15T11:39:02.891Z,94.42
2023-01-15T11:40:02.908Z,95.39
2023-01-15T11:41:02.876Z,96.11
2023-01-15T11:42:02.885Z,96.88
2023-01-15T11:43:02.855Z,97.44
2023-01-15T11:44:02.845Z,97.85
2023-01-15T11:45:02.823Z,98.10
2023-01-15T11:46:02.853Z,98.00
2023-01-15T11:47:02.792Z,98.41
2023-01-15T11:48:02.819Z,98.52
2023-01-15T11:49:02.789Z,98.56
2023-01-15T11:50:02.765Z,98.87
2023-01-15T11:51:02.782Z,98.92
2023-01-15T11:52:02.750Z,98.92
2023-01-15T11:53:02.740Z,98.86
2023-01-15T11:54:02.720Z,99.22
2023-01-15T11:55:02.716Z,99.26
2023-01-15T11:56:02.713Z,99.47
2023-01-15T11:57:02.695Z,99.78
2023-01-15T11:58:02.684Z,99.99
2023-01-15T11:59:02.670Z,99.99
2023-01-15T12:00:02.669Z,99.99
2023-01-15T12:01:02.713Z,99.99
2023-01-15T12:02:02.646Z,99.99
2023-01-15T12:03:02.626Z,99.99
2023-01-15T12:04:02.744Z,99.99
2023-01-15T12:05:02.697Z,99.99
2023-01-15T12:06:02.643Z,99.99
2023-01-15T12:07:02.607Z,99.99
2023-01-15T12:08:02.577Z,99.99
2023-01-15T12:09:02.585Z,99.99
2023-01-15T12:10:02.560Z,99.99
2023-01-15T12:11:13.995Z,99.99
2023-01-15T12:12:02.547Z,99.99
2023-01-15T12:13:02.527Z,99.99
2023-01-15T12:14:02.518Z,99.99
2023-01-15T12:15:02.508Z,99.99
2023-01-15T12:16:02.530Z,99.99
2023-01-15T12:17:02.493Z,99.99
2023-01-15T12:18:02.471Z,99.99
2023-01-15T12:19:02.483Z,99.99
2023-01-15T12:20:02.469Z,99.99
2023-01-15T12:21:02.470Z,99.99
2023-01-15T12:22:02.427Z,99.99
2023-01-15T12:23:02.432Z,99.99
2023-01-15T12:24:02.406Z,99.99
2023-01-15T12:25:02.397Z,99.99
2023-01-15T12:26:02.410Z,99.99
2023-01-15T12:27:02.385Z,99.99
2023-01-15T12:28:02.361Z,99.99
2023-01-15T12:29:02.351Z,99.99
2023-01-15T12:30:02.371Z,99.99
2023-01-15T12:31:02.399Z,99.99
2023-01-15T12:32:02.327Z,99.99
2023-01-15T12:33:02.305Z,99.99
2023-01-15T12:34:02.312Z,99.99
2023-01-15T12:35:02.308Z,99.99
2023-01-15T12:36:02.313Z,99.99
2023-01-15T12:37:02.255Z,99.99
2023-01-15T12:38:02.247Z,99.99
2023-01-15T12:39:02.248Z,99.99
2023-01-15T12:40:02.273Z,99.99
2023-01-15T12:41:02.242Z,99.99
2023-01-15T12:42:02.227Z,99.99
2023-01-15T12:43:02.206Z,99.99
2023-01-15T12:44:02.184Z,99.99
2023-01-15T12:45:02.180Z,99.99
2023-01-15T12:46:02.193Z,99.99
2023-01-15T12:47:02.166Z,99.99
2023-01-15T12:48:02.147Z,99.99
2023-01-15T12:49:02.134Z,99.99
2023-01-15T12:50:02.138Z,99.99
2023-01-15T12:51:02.136Z,99.99
2023-01-15T12:52:02.095Z,99.99